createdAt,value
2019-05-23T00:01:19.288Z,87.60
2019-05-23T00:03:52.298Z,87.60
2019-05-23T00:06:23.861Z,88.70
2019-05-23T00:08:52.926Z,89.40
2019-05-23T00:11:41.059Z,90.10
2019-05-23T00:14:38.550Z,90.00
2019-05-23T00:17:11.783Z,87.90
2019-05-23T00:19:40.922Z,90.10
2019-05-23T00:22:11.518Z,89.70
2019-05-23T00:24:42.906Z,89.30
2019-05-23T00:27:13.531Z,89.60
2019-05-23T00:29:44.275Z,88.60
2019-05-23T00:32:22.678Z,87.60
2019-05-23T00:34:52.764Z,88.30
2019-05-23T00:37:24.067Z,88.50
2019-05-23T00:39:54.504Z,89.20
2019-05-23T00:42:23.027Z,87.70
2019-05-23T00:44:52.273Z,89.30
2019-05-23T00:47:21.216Z,88.50
2019-05-23T00:49:50.307Z,89.10
2019-05-23T00:52:20.073Z,90.00
2019-05-23T00:54:50.031Z,88.70
2019-05-23T00:57:18.853Z,89.90
2019-05-23T00:59:48.994Z,90.20
2019-05-23T01:02:18.201Z,89.80
2019-05-23T01:04:47.505Z,88.20
2019-05-23T01:07:17.048Z,90.10
2019-05-23T01:09:46.588Z,90.00
2019-05-23T01:12:17.308Z,88.50
2019-05-23T01:14:47.114Z,88.10
2019-05-23T01:17:17.536Z,89.10
2019-05-23T01:19:46.953Z,87.90
2019-05-23T01:22:16.851Z,87.80
2019-05-23T01:24:47.311Z,88.80
2019-05-23T01:27:17.202Z,88.30
2019-05-23T01:29:50.155Z,88.20
2019-05-23T01:32:19.850Z,86.30
2019-05-23T01:34:49.324Z,88.80
2019-05-23T01:37:18.848Z,90.30
2019-05-23T01:39:47.926Z,89.10
2019-05-23T01:42:17.520Z,88.20
2019-05-23T01:44:47.650Z,89.50
2019-05-23T01:47:17.400Z,88.80
2019-05-23T01:49:46.967Z,88.60
2019-05-23T01:52:16.540Z,89.50
2019-05-23T01:54:45.060Z,87.90
2019-05-23T01:57:14.364Z,87.60
2019-05-23T01:59:43.150Z,89.90
2019-05-23T02:02:13.288Z,89.10
2019-05-23T02:04:42.667Z,90.00
2019-05-23T02:07:11.563Z,89.30
2019-05-23T02:09:40.864Z,87.60
2019-05-23T02:12:11.100Z,88.90
2019-05-23T02:14:42.556Z,90.00
2019-05-23T02:17:12.952Z,89.20
2019-05-23T02:19:41.876Z,89.50
2019-05-23T02:22:12.584Z,90.10
2019-05-23T02:24:42.442Z,89.40
2019-05-23T02:27:11.932Z,89.80
2019-05-23T02:29:42.881Z,90.10
2019-05-23T02:32:11.831Z,88.60
2019-05-23T02:34:41.660Z,88.30
2019-05-23T02:37:14.981Z,88.80
2019-05-23T02:39:51.230Z,88.60
2019-05-23T02:42:31.567Z,89.80
2019-05-23T02:45:00.789Z,90.00
2019-05-23T02:47:33.599Z,88.00
2019-05-23T02:50:02.480Z,88.10
2019-05-23T02:52:44.142Z,88.80
2019-05-23T02:55:16.017Z,89.50
2019-05-23T02:57:46.920Z,88.70
2019-05-23T03:00:27.206Z,88.30
2019-05-23T03:03:00.488Z,90.20
2019-05-23T03:05:31.516Z,88.70
2019-05-23T03:08:00.876Z,88.60
2019-05-23T03:10:32.832Z,87.40
2019-05-23T03:13:01.929Z,90.30
2019-05-23T03:15:33.661Z,90.10
2019-05-23T03:18:03.701Z,88.60
2019-05-23T03:20:34.387Z,88.10
2019-05-23T03:23:06.059Z,88.10
2019-05-23T03:25:39.642Z,88.80
2019-05-23T03:28:09.701Z,88.70
2019-05-23T03:30:40.045Z,87.40
2019-05-23T03:33:13.077Z,87.90
2019-05-23T03:36:00.297Z,87.60
2019-05-23T03:38:28.721Z,88.00
2019-05-23T03:40:57.191Z,88.00
2019-05-23T03:43:26.971Z,88.50
2019-05-23T03:46:07.649Z,87.80
2019-05-23T03:48:37.812Z,86.80
2019-05-23T03:51:09.028Z,88.40
2019-05-23T03:53:40.048Z,89.20
2019-05-23T03:56:10.263Z,88.90
2019-05-23T03:58:40.820Z,88.10
2019-05-23T04:01:11.356Z,87.70
2019-05-23T04:03:40.676Z,87.60
2019-05-23T04:06:09.827Z,85.90
2019-05-23T04:08:38.343Z,89.70
2019-05-23T04:11:07.439Z,88.70
2019-05-23T04:13:35.982Z,88.60
2019-05-23T04:16:04.561Z,88.60
2019-05-23T04:18:33.534Z,87.80
2019-05-23T04:21:02.075Z,86.80
2019-05-23T04:23:30.562Z,88.30
2019-05-23T04:25:59.658Z,89.20
2019-05-23T04:28:28.821Z,90.00
2019-05-23T04:30:57.822Z,88.10
2019-05-23T04:33:26.861Z,86.00
2019-05-23T04:35:56.633Z,89.60
2019-05-23T04:38:26.343Z,88.30
2019-05-23T04:40:56.078Z,89.50
2019-05-23T04:43:24.827Z,90.10
2019-05-23T04:45:53.393Z,90.40
2019-05-23T04:48:22.020Z,87.20
2019-05-23T04:50:50.888Z,90.50
2019-05-23T04:53:19.665Z,90.80
2019-05-23T04:55:48.550Z,90.70
2019-05-23T04:58:17.086Z,89.70
2019-05-23T05:00:45.944Z,88.30
2019-05-23T05:03:18.363Z,90.50
2019-05-23T05:05:47.190Z,90.40
2019-05-23T05:08:15.813Z,89.50
2019-05-23T05:10:45.072Z,90.40
2019-05-23T05:13:13.868Z,91.20
2019-05-23T05:15:42.586Z,90.80
2019-05-23T05:18:11.447Z,91.00
2019-05-23T05:20:40.766Z,91.30
2019-05-23T05:23:09.192Z,92.20
2019-05-23T05:25:37.895Z,90.90
2019-05-23T05:28:06.865Z,91.20
2019-05-23T05:30:35.425Z,90.60
2019-05-23T05:33:04.897Z,90.40
2019-05-23T05:35:33.421Z,90.00
2019-05-23T05:38:01.899Z,90.10
2019-05-23T05:40:31.163Z,90.10
2019-05-23T05:43:00.074Z,89.20
2019-05-23T05:45:29.262Z,90.00
2019-05-23T05:47:57.782Z,88.80
2019-05-23T05:50:26.293Z,88.70
2019-05-23T05:52:55.209Z,88.10
2019-05-23T05:55:24.095Z,87.80
2019-05-23T05:57:52.541Z,87.00
2019-05-23T06:00:29.098Z,86.40
2019-05-23T06:03:04.954Z,85.00
2019-05-23T06:05:47.031Z,85.00
2019-05-23T06:08:16.777Z,85.20
2019-05-23T06:10:45.802Z,85.20
2019-05-23T06:13:15.194Z,85.20
2019-05-23T06:15:44.590Z,84.70
2019-05-23T06:18:14.112Z,84.60
2019-05-23T06:20:45.066Z,85.00
2019-05-23T06:23:13.633Z,83.50
2019-05-23T06:25:42.072Z,83.50
2019-05-23T06:28:11.660Z,82.30
2019-05-23T06:30:42.162Z,83.20
2019-05-23T06:33:22.461Z,81.90
2019-05-23T06:35:41.262Z,82.10
2019-05-23T06:38:10.933Z,81.30
2019-05-23T06:40:40.142Z,80.30
2019-05-23T06:43:09.585Z,80.50
2019-05-23T06:45:40.495Z,79.30
2019-05-23T06:48:09.125Z,78.80
2019-05-23T06:50:37.643Z,80.00
2019-05-23T06:53:07.299Z,79.80
2019-05-23T06:55:36.183Z,77.90
2019-05-23T06:58:05.685Z,76.60
2019-05-23T07:00:34.640Z,79.20
2019-05-23T07:03:03.217Z,77.70
2019-05-23T07:05:34.763Z,76.00
2019-05-23T07:08:04.548Z,76.00
2019-05-23T07:10:33.546Z,76.10
2019-05-23T07:13:02.693Z,75.00
2019-05-23T07:15:31.622Z,77.30
2019-05-23T07:18:01.795Z,76.50
2019-05-23T07:20:31.164Z,76.00
2019-05-23T07:22:59.926Z,77.00
2019-05-23T07:25:28.765Z,77.00
2019-05-23T07:27:57.762Z,74.80
2019-05-23T07:30:27.156Z,74.00
2019-05-23T07:32:55.990Z,75.10
2019-05-23T07:35:24.529Z,75.60
2019-05-23T07:37:53.053Z,73.50
2019-05-23T07:40:23.526Z,73.60
2019-05-23T07:42:52.532Z,72.90
2019-05-23T07:45:22.777Z,72.60
2019-05-23T07:47:51.491Z,70.00
2019-05-23T07:50:20.305Z,70.50
2019-05-23T07:52:49.171Z,70.70
2019-05-23T07:55:19.532Z,71.00
2019-05-23T07:57:48.266Z,71.30
2019-05-23T08:00:25.301Z,72.20
2019-05-23T08:02:56.433Z,73.40
2019-05-23T08:05:25.198Z,73.50
2019-05-23T08:07:54.208Z,69.80
2019-05-23T08:10:33.129Z,68.10
2019-05-23T08:12:53.206Z,69.50
2019-05-23T08:15:22.182Z,71.80
2019-05-23T08:17:51.584Z,71.60
2019-05-23T08:20:20.366Z,71.10
2019-05-23T08:22:48.810Z,71.50
2019-05-23T08:25:17.478Z,69.40
2019-05-23T08:27:46.174Z,67.40
2019-05-23T08:30:16.512Z,69.50
2019-05-23T08:32:45.884Z,67.00
2019-05-23T08:35:17.816Z,67.00
2019-05-23T08:37:46.188Z,67.90
2019-05-23T08:40:19.102Z,63.70
2019-05-23T08:42:48.358Z,68.60
2019-05-23T08:45:18.922Z,65.80
2019-05-23T08:47:47.443Z,63.80
2019-05-23T08:50:18.763Z,67.00
2019-05-23T08:52:47.409Z,65.30
2019-05-23T08:55:23.882Z,65.80
2019-05-23T08:57:56.890Z,63.50
2019-05-23T09:00:27.505Z,62.80
2019-05-23T09:02:58.828Z,64.70
2019-05-23T09:05:32.530Z,65.60
2019-05-23T09:08:01.958Z,61.80
2019-05-23T09:10:31.367Z,60.70
2019-05-23T09:12:59.997Z,61.70
2019-05-23T09:15:28.600Z,60.60
2019-05-23T09:17:57.107Z,61.50
2019-05-23T09:20:26.056Z,61.40
2019-05-23T09:22:54.945Z,59.90
2019-05-23T09:25:23.710Z,66.10
2019-05-23T09:27:53.484Z,60.60
2019-05-23T09:30:23.180Z,62.20
2019-05-23T09:32:51.903Z,58.90
2019-05-23T09:35:22.311Z,58.10
2019-05-23T09:37:51.110Z,62.60
2019-05-23T09:40:19.910Z,56.50
2019-05-23T09:42:49.007Z,56.30
2019-05-23T09:45:18.294Z,58.50
2019-05-23T09:47:51.026Z,57.80
2019-05-23T09:50:19.837Z,57.30
2019-05-23T09:52:48.294Z,59.50
2019-05-23T09:55:17.383Z,60.10
2019-05-23T09:57:45.918Z,60.50
2019-05-23T10:00:17.794Z,58.90
2019-05-23T10:02:46.254Z,55.20
2019-05-23T10:05:15.550Z,60.80
2019-05-23T10:07:44.666Z,62.20
2019-05-23T10:10:16.991Z,58.40
2019-05-23T10:12:45.754Z,56.30
2019-05-23T10:15:26.259Z,53.70
2019-05-23T10:17:55.303Z,55.90
2019-05-23T10:20:27.375Z,55.40
2019-05-23T10:22:56.256Z,58.20
2019-05-23T10:25:24.789Z,55.20
2019-05-23T10:27:55.753Z,60.90
2019-05-23T10:30:24.044Z,56.30
2019-05-23T10:32:52.833Z,57.20
2019-05-23T10:35:21.321Z,55.70
2019-05-23T10:37:50.204Z,56.00
2019-05-23T10:40:20.017Z,51.40
2019-05-23T10:42:49.003Z,55.60
2019-05-23T10:45:17.770Z,53.40
2019-05-23T10:47:46.290Z,61.40
2019-05-23T10:50:15.396Z,61.90
2019-05-23T10:52:43.860Z,62.80
2019-05-23T10:55:12.844Z,52.90
2019-05-23T10:57:41.641Z,55.20
2019-05-23T11:00:13.301Z,59.70
2019-05-23T11:02:43.661Z,60.80
2019-05-23T11:05:14.102Z,63.10
2019-05-23T11:07:44.162Z,56.60
2019-05-23T11:10:12.962Z,59.50
2019-05-23T11:12:42.039Z,59.20
2019-05-23T11:15:11.436Z,56.00
2019-05-23T11:17:40.227Z,57.90
2019-05-23T11:20:11.175Z,57.90
2019-05-23T11:22:40.048Z,58.20
2019-05-23T11:25:10.376Z,56.00
2019-05-23T11:27:39.241Z,58.90
2019-05-23T11:30:13.599Z,59.60
2019-05-23T11:32:42.383Z,61.50
2019-05-23T11:35:11.776Z,58.90
2019-05-23T11:37:42.073Z,57.20
2019-05-23T11:40:11.190Z,62.90
2019-05-23T11:42:39.724Z,59.10
2019-05-23T11:45:08.602Z,57.00
2019-05-23T11:47:37.708Z,56.90
2019-05-23T11:50:08.532Z,56.00
2019-05-23T11:52:37.604Z,58.10
2019-05-23T11:55:07.558Z,54.80
2019-05-23T11:57:37.724Z,53.80
2019-05-23T12:00:11.070Z,57.30
2019-05-23T12:02:44.125Z,59.80
2019-05-23T12:05:14.704Z,59.30
2019-05-23T12:07:43.246Z,59.30
2019-05-23T12:10:12.399Z,55.50
2019-05-23T12:12:40.850Z,58.50
2019-05-23T12:15:13.324Z,60.50
2019-05-23T12:17:42.877Z,57.50
2019-05-23T12:20:13.016Z,58.00
2019-05-23T12:22:42.124Z,57.90
2019-05-23T12:25:21.830Z,57.40
2019-05-23T12:27:43.177Z,54.00
2019-05-23T12:30:14.419Z,55.10
2019-05-23T12:32:42.937Z,53.70
2019-05-23T12:35:12.272Z,55.40
2019-05-23T12:37:41.113Z,52.90
2019-05-23T12:40:11.653Z,54.70
2019-05-23T12:42:40.176Z,56.20
2019-05-23T12:45:10.827Z,55.60
2019-05-23T12:47:46.923Z,56.90
2019-05-23T12:50:17.434Z,58.30
2019-05-23T12:52:45.892Z,58.60
2019-05-23T12:55:14.466Z,56.20
2019-05-23T12:57:43.219Z,55.00
2019-05-23T13:00:14.087Z,59.70
2019-05-23T13:02:42.527Z,56.80
2019-05-23T13:05:12.367Z,56.20
2019-05-23T13:07:40.798Z,58.00
2019-05-23T13:10:09.893Z,55.50
2019-05-23T13:12:38.867Z,50.60
2019-05-23T13:15:08.421Z,52.80
2019-05-23T13:17:37.115Z,55.80
2019-05-23T13:20:08.093Z,56.80
2019-05-23T13:22:36.589Z,53.10
2019-05-23T13:25:08.439Z,53.10
2019-05-23T13:27:37.898Z,52.50
2019-05-23T13:30:07.942Z,51.30
2019-05-23T13:32:36.916Z,52.60
2019-05-23T13:35:07.253Z,54.10
2019-05-23T13:37:50.435Z,52.20
2019-05-23T13:40:07.175Z,51.70
2019-05-23T13:42:35.841Z,55.10
2019-05-23T13:45:06.717Z,52.90
2019-05-23T13:47:35.433Z,51.10
2019-05-23T13:50:06.100Z,50.90
2019-05-23T13:52:34.553Z,47.90
2019-05-23T13:55:04.597Z,45.90
2019-05-23T13:57:33.131Z,45.90
2019-05-23T14:00:01.672Z,42.10
2019-05-23T14:02:31.661Z,38.50
2019-05-23T14:05:00.434Z,38.30
2019-05-23T14:07:28.941Z,36.10
2019-05-23T14:09:57.471Z,34.20
2019-05-23T14:12:27.433Z,32.80
2019-05-23T14:14:55.888Z,35.40
2019-05-23T14:17:25.966Z,35.40
2019-05-23T14:19:54.462Z,34.10
2019-05-23T14:22:23.244Z,34.10
2019-05-23T14:24:51.914Z,32.90
2019-05-23T14:27:22.015Z,33.90
2019-05-23T14:29:50.462Z,33.10
2019-05-23T14:32:20.633Z,34.40
2019-05-23T14:34:49.066Z,33.30
2019-05-23T14:37:19.412Z,34.70
2019-05-23T14:39:48.414Z,35.50
2019-05-23T14:42:19.213Z,35.30
2019-05-23T14:44:48.078Z,37.10
2019-05-23T14:47:18.331Z,36.90
2019-05-23T14:49:48.495Z,35.40
2019-05-23T14:52:18.885Z,36.40
2019-05-23T14:54:49.225Z,37.40
2019-05-23T14:57:18.238Z,36.20
2019-05-23T14:59:46.770Z,36.20
2019-05-23T15:02:16.290Z,36.90
2019-05-23T15:04:44.740Z,35.30
2019-05-23T15:07:13.598Z,35.00
2019-05-23T15:09:42.061Z,36.70
2019-05-23T15:12:10.997Z,39.90
2019-05-23T15:14:40.182Z,41.50
2019-05-23T15:17:09.168Z,41.20
2019-05-23T15:19:44.196Z,42.20
2019-05-23T15:22:07.856Z,45.30
2019-05-23T15:24:36.566Z,45.90
2019-05-23T15:27:05.190Z,45.30
2019-05-23T15:29:33.878Z,47.00
2019-05-23T15:32:03.321Z,47.50
2019-05-23T15:34:34.931Z,48.10
2019-05-23T15:37:02.434Z,47.30
2019-05-23T15:39:31.301Z,49.00
2019-05-23T15:41:59.760Z,49.50
2019-05-23T15:44:29.934Z,49.00
2019-05-23T15:46:58.432Z,49.10
2019-05-23T15:49:27.363Z,51.60
2019-05-23T15:52:12.429Z,50.10
2019-05-23T15:54:41.744Z,49.40
2019-05-23T15:57:28.102Z,51.00
2019-05-23T16:00:01.418Z,51.80
2019-05-23T16:02:31.591Z,51.50
2019-05-23T16:05:00.777Z,51.10
2019-05-23T16:07:30.394Z,52.00
2019-05-23T16:09:58.937Z,51.10
2019-05-23T16:12:27.540Z,50.80
2019-05-23T16:14:56.121Z,52.70
2019-05-23T16:17:24.584Z,51.80
2019-05-23T16:19:53.349Z,51.20
2019-05-23T16:22:21.980Z,50.90
2019-05-23T16:24:50.414Z,53.40
2019-05-23T16:27:19.178Z,53.70
2019-05-23T16:29:47.676Z,51.90
2019-05-23T16:32:16.383Z,51.50
2019-05-23T16:34:44.901Z,54.00
2019-05-23T16:37:13.670Z,53.50
2019-05-23T16:39:47.851Z,54.30
2019-05-23T16:42:13.623Z,52.20
2019-05-23T16:44:42.237Z,52.10
2019-05-23T16:47:11.162Z,54.10
2019-05-23T16:49:39.669Z,53.50
2019-05-23T16:52:08.174Z,52.50
2019-05-23T16:54:38.637Z,55.40
2019-05-23T16:57:27.166Z,55.00
2019-05-23T16:59:57.344Z,55.50
2019-05-23T17:02:30.301Z,56.30
2019-05-23T17:05:10.462Z,55.20
2019-05-23T17:07:38.299Z,55.20
2019-05-23T17:10:09.749Z,55.20
2019-05-23T17:12:46.149Z,56.00
2019-05-23T17:15:16.490Z,56.90
2019-05-23T17:18:01.215Z,55.50
2019-05-23T17:20:21.487Z,55.70
2019-05-23T17:22:54.610Z,55.10
2019-05-23T17:25:39.714Z,56.90
2019-05-23T17:28:09.107Z,55.00
2019-05-23T17:30:42.240Z,57.20
2019-05-23T17:33:11.084Z,57.70
2019-05-23T17:35:40.239Z,57.50
2019-05-23T17:38:08.829Z,57.50
2019-05-23T17:40:37.759Z,58.60
2019-05-23T17:43:06.263Z,59.00
2019-05-23T17:45:34.787Z,57.10
2019-05-23T17:48:03.666Z,57.80
2019-05-23T17:50:47.505Z,58.80
2019-05-23T17:53:16.246Z,58.40
2019-05-23T17:55:46.129Z,57.80
2019-05-23T17:58:16.115Z,58.10
2019-05-23T18:00:46.109Z,59.20
2019-05-23T18:03:15.158Z,59.30
2019-05-23T18:05:44.074Z,59.40
2019-05-23T18:08:12.790Z,61.60
2019-05-23T18:10:45.075Z,61.80
2019-05-23T18:13:12.487Z,62.20
2019-05-23T18:15:42.203Z,62.40
2019-05-23T18:18:11.092Z,62.80
2019-05-23T18:20:41.589Z,63.10
2019-05-23T18:23:11.084Z,63.20
2019-05-23T18:25:40.015Z,64.80
2019-05-23T18:28:09.671Z,64.30
2019-05-23T18:30:55.643Z,61.30
2019-05-23T18:33:25.537Z,64.30
2019-05-23T18:35:55.757Z,63.70
2019-05-23T18:38:24.698Z,63.50
2019-05-23T18:41:02.335Z,61.30
2019-05-23T18:43:24.988Z,63.50
2019-05-23T18:45:55.078Z,64.30
2019-05-23T18:48:24.933Z,63.60
2019-05-23T18:50:53.724Z,64.50
2019-05-23T18:53:22.663Z,64.90
2019-05-23T18:55:51.462Z,65.80
2019-05-23T18:58:20.483Z,65.00
2019-05-23T19:00:56.726Z,66.10
2019-05-23T19:03:25.216Z,66.00
2019-05-23T19:05:53.793Z,67.00
2019-05-23T19:08:23.435Z,67.30
2019-05-23T19:10:52.715Z,67.30
2019-05-23T19:13:21.240Z,68.70
2019-05-23T19:15:49.847Z,69.60
2019-05-23T19:18:19.073Z,70.50
2019-05-23T19:20:48.273Z,70.00
2019-05-23T19:23:17.000Z,70.60
2019-05-23T19:25:46.668Z,70.80
2019-05-23T19:28:15.664Z,71.30
2019-05-23T19:30:44.927Z,71.70
2019-05-23T19:33:13.941Z,72.30
2019-05-23T19:35:42.467Z,71.80
2019-05-23T19:38:12.349Z,72.00
2019-05-23T19:40:41.942Z,72.20
2019-05-23T19:43:10.470Z,73.20
2019-05-23T19:45:39.334Z,73.20
2019-05-23T19:48:08.014Z,74.40
2019-05-23T19:50:38.531Z,75.00
2019-05-23T19:53:07.338Z,75.30
2019-05-23T19:55:39.599Z,74.60
2019-05-23T19:58:08.024Z,74.20
2019-05-23T20:00:36.732Z,76.00
2019-05-23T20:03:05.721Z,76.10
2019-05-23T20:05:44.917Z,76.30
2019-05-23T20:08:13.563Z,78.10
2019-05-23T20:10:42.080Z,76.50
2019-05-23T20:13:10.522Z,76.30
2019-05-23T20:15:39.389Z,76.80
2019-05-23T20:18:08.465Z,78.20
2019-05-23T20:20:39.190Z,76.70
2019-05-23T20:23:09.653Z,77.20
2019-05-23T20:25:38.688Z,78.40
2019-05-23T20:28:07.497Z,77.90
2019-05-23T20:30:47.759Z,77.30
2019-05-23T20:33:16.304Z,76.60
2019-05-23T20:35:44.862Z,78.40
2019-05-23T20:38:13.656Z,77.90
2019-05-23T20:40:42.265Z,77.50
2019-05-23T20:43:11.280Z,77.60
2019-05-23T20:45:40.258Z,78.40
2019-05-23T20:48:09.363Z,77.90
2019-05-23T20:50:38.244Z,77.20
2019-05-23T20:53:06.834Z,77.50
2019-05-23T20:55:35.636Z,77.70
2019-05-23T20:58:05.371Z,78.70
2019-05-23T21:00:36.066Z,79.20
2019-05-23T21:03:05.728Z,79.20
2019-05-23T21:05:34.798Z,80.50
2019-05-23T21:08:03.875Z,78.90
2019-05-23T21:10:44.334Z,78.20
2019-05-23T21:13:12.939Z,77.70
2019-05-23T21:15:41.720Z,79.60
2019-05-23T21:18:10.170Z,79.20
2019-05-23T21:20:39.148Z,78.30
2019-05-23T21:23:07.725Z,79.10
2019-05-23T21:25:38.200Z,78.50
2019-05-23T21:28:06.636Z,80.40
2019-05-23T21:30:35.229Z,79.00
2019-05-23T21:33:04.378Z,79.10
2019-05-23T21:35:33.346Z,78.10
2019-05-23T21:38:01.783Z,80.80
2019-05-23T21:40:33.392Z,80.80
2019-05-23T21:43:02.164Z,79.30
2019-05-23T21:45:30.660Z,79.80
2019-05-23T21:47:59.434Z,79.50
2019-05-23T21:50:28.317Z,79.90
2019-05-23T21:52:56.913Z,80.00
2019-05-23T21:55:40.539Z,79.00
2019-05-23T21:58:11.145Z,79.70
2019-05-23T22:01:08.375Z,80.60
2019-05-23T22:03:43.104Z,79.60
2019-05-23T22:06:14.416Z,80.80
2019-05-23T22:08:44.421Z,81.10
2019-05-23T22:11:13.332Z,79.90
2019-05-23T22:13:41.833Z,80.40
2019-05-23T22:16:10.497Z,80.70
2019-05-23T22:18:39.266Z,79.00
2019-05-23T22:21:08.050Z,79.80
2019-05-23T22:23:37.708Z,80.20
2019-05-23T22:26:07.062Z,78.20
2019-05-23T22:28:35.850Z,79.10
2019-05-23T22:31:04.282Z,81.70
2019-05-23T22:33:34.971Z,78.50
2019-05-23T22:36:03.419Z,81.10
2019-05-23T22:38:32.126Z,80.00
2019-05-23T22:41:00.578Z,81.30
2019-05-23T22:43:29.022Z,81.20
2019-05-23T22:45:57.512Z,81.60
2019-05-23T22:48:26.254Z,78.30
2019-05-23T22:50:55.042Z,81.20
2019-05-23T22:53:23.722Z,80.90
2019-05-23T22:55:52.537Z,81.20
2019-05-23T22:58:21.048Z,81.20
2019-05-23T23:00:50.508Z,82.60
2019-05-23T23:03:18.987Z,81.00
2019-05-23T23:05:47.416Z,81.10
2019-05-23T23:08:16.729Z,80.60
2019-05-23T23:10:45.227Z,80.80
2019-05-23T23:13:14.314Z,81.70
2019-05-23T23:15:43.250Z,80.30
2019-05-23T23:18:12.128Z,78.60
2019-05-23T23:20:40.926Z,82.30
2019-05-23T23:23:09.420Z,81.80
2019-05-23T23:25:37.880Z,81.30
2019-05-23T23:28:06.390Z,83.20
2019-05-23T23:30:43.039Z,82.30
2019-05-23T23:33:11.478Z,79.50
2019-05-23T23:35:40.209Z,80.70
2019-05-23T23:38:08.918Z,80.40
2019-05-23T23:40:37.675Z,82.80
2019-05-23T23:43:06.493Z,81.70
2019-05-23T23:45:52.849Z,82.80
2019-05-23T23:48:39.306Z,82.10
2019-05-23T23:51:25.607Z,83.50
2019-05-23T23:54:12.224Z,83.10
2019-05-23T23:56:58.583Z,82.60
2019-05-23T23:59:26.326Z,83.00
